Time;durP1;ratioP1;P1;durP2;ratioP2;P2;SDS_P1;SDS_P2;PMS_P1;PMS_P2;Temp;Humidity;BMP_temperature;BMP_pressure;BME280_temperature;BME280_humidity;BME280_pressure;Samples;Min_cycle;Max_cycle;Signal;HPM_P1;HPM_P2
2023/05/26 00:00:09;;;;;;;;;11.00;8.67;;;;;14.38;62.11;102494.53;5097893;27;45470;-66
2023/05/26 00:02:39;;;;;;;;;18.00;10.00;;;;;14.37;62.57;102498.06;5097554;27;45398;-66
2023/05/26 00:05:07;;;;;;;;;19.00;10.67;;;;;14.33;62.58;102488.38;5097752;27;45575;-66
2023/05/26 00:07:33;;;;;;;;;14.00;8.33;;;;;14.26;62.69;102490.25;5097367;27;46264;-66
2023/05/26 00:09:59;;;;;;;;;15.00;11.33;;;;;14.30;63.25;102493.72;5097598;27;45551;-65
2023/05/26 00:12:24;;;;;;;;;16.00;9.67;;;;;14.26;62.46;102498.19;5097610;27;45509;-66
2023/05/26 00:14:50;;;;;;;;;14.00;11.00;;;;;14.21;62.31;102491.16;5097831;27;45280;-66
2023/05/26 00:17:19;;;;;;;;;17.00;10.00;;;;;14.15;63.08;102485.94;5097377;27;45570;-66
2023/05/26 00:19:44;;;;;;;;;10.67;9.00;;;;;14.21;61.19;102494.69;5097374;27;45510;-66
2023/05/26 00:22:12;;;;;;;;;17.00;12.00;;;;;14.22;62.66;102496.44;5097551;27;45348;-66
2023/05/26 00:24:38;;;;;;;;;10.67;10.00;;;;;14.11;62.63;102485.06;5097487;27;45470;-65
2023/05/26 00:27:03;;;;;;;;;13.00;10.67;;;;;14.12;62.47;102488.63;5097308;27;46390;-66
2023/05/26 00:29:30;;;;;;;;;11.00;9.00;;;;;14.06;62.44;102479.81;5100656;27;45365;-68
2023/05/26 00:31:56;;;;;;;;;15.00;9.67;;;;;14.10;63.12;102485.97;5100904;27;45327;-66
2023/05/26 00:34:21;;;;;;;;;10.67;9.33;;;;;14.06;62.78;102478.97;5101279;27;45453;-65
2023/05/26 00:36:47;;;;;;;;;20.67;12.67;;;;;14.05;62.31;102490.44;5082252;27;47229;-66
2023/05/26 00:39:12;;;;;;;;;13.33;10.67;;;;;14.03;62.97;102486.91;5100747;27;45438;-65
2023/05/26 00:41:37;;;;;;;;;12.33;10.00;;;;;14.08;62.47;102490.41;5100897;27;45527;-66
2023/05/26 00:44:03;;;;;;;;;13.33;10.67;;;;;13.73;62.84;102430.69;5101175;27;45432;-66
2023/05/26 00:46:30;;;;;;;;;11.00;9.33;;;;;13.86;62.29;102458.81;5100512;27;46876;-66
2023/05/26 00:48:55;;;;;;;;;14.00;11.00;;;;;14.03;62.97;102489.56;5100435;27;45446;-66
2023/05/26 00:51:20;;;;;;;;;18.00;11.00;;;;;14.01;62.37;102486.06;5100797;27;45457;-67
2023/05/26 00:53:46;;;;;;;;;12.00;10.67;;;;;13.93;63.16;102479.06;5101037;27;45800;-68
2023/05/26 00:56:14;;;;;;;;;14.33;11.33;;;;;13.90;63.21;102473.78;5100374;27;45461;-66
2023/05/26 00:58:39;;;;;;;;;9.67;6.67;;;;;13.73;63.45;102441.28;5100337;27;45339;-66
2023/05/26 01:01:05;;;;;;;;;15.33;11.00;;;;;13.87;63.17;102475.59;5100621;27;45230;-66
2023/05/26 01:03:30;;;;;;;;;16.67;9.00;;;;;13.90;63.59;102487.03;5100893;27;45465;-66
2023/05/26 01:05:56;;;;;;;;;10.67;9.00;;;;;13.91;63.11;102491.44;5100195;27;46459;-65
2023/05/26 01:08:21;;;;;;;;;20.00;10.33;;;;;13.83;63.47;102476.53;5100298;27;45256;-66
2023/05/26 01:10:47;;;;;;;;;16.00;13.67;;;;;13.82;63.58;102488.00;5100522;27;45433;-66
2023/05/26 01:13:17;;;;;;;;;10.67;8.00;;;;;13.75;63.59;102477.47;5100630;27;45282;-66
2023/05/26 01:15:51;;;;;;;;;19.33;11.33;;;;;13.80;63.79;102487.13;5100230;27;46448;-66
2023/05/26 01:18:36;;;;;;;;;16.00;10.00;;;;;13.75;63.79;102484.50;5100151;27;45320;-66
2023/05/26 01:21:08;;;;;;;;;12.00;8.00;;;;;13.72;63.62;102481.88;5100496;27;45380;-65
2023/05/26 01:23:59;;;;;;;;;12.67;11.00;;;;;13.73;63.55;102483.66;5100351;27;45303;-66
2023/05/26 01:26:30;;;;;;;;;12.67;9.00;;;;;13.70;63.64;102486.31;5099557;27;45454;-65
2023/05/26 01:29:04;;;;;;;;;17.00;10.67;;;;;13.63;63.66;102479.31;5099955;27;45422;-66
2023/05/26 01:31:33;;;;;;;;;11.33;10.00;;;;;13.54;64.02;102480.25;5100083;27;45432;-66
2023/05/26 01:33:59;;;;;;;;;11.00;10.33;;;;;13.61;63.87;102487.28;5100363;27;45250;-66
2023/05/26 01:36:24;;;;;;;;;15.33;9.33;;;;;13.59;64.40;102478.44;5081586;27;46330;-66
2023/05/26 01:38:50;;;;;;;;;15.00;10.00;;;;;13.60;63.90;102482.84;5099475;27;45314;-66
2023/05/26 01:41:27;;;;;;;;;16.67;7.00;;;;;13.62;63.70;102485.50;5099766;27;45300;-66
2023/05/26 01:44:01;;;;;;;;;10.00;9.00;;;;;13.48;63.72;102467.94;5100153;27;45532;-66
2023/05/26 01:46:36;;;;;;;;;16.33;11.00;;;;;13.53;63.62;102478.50;5099189;27;45567;-66
2023/05/26 01:49:05;;;;;;;;;10.67;9.00;;;;;13.32;63.81;102439.81;5099817;27;45241;-66
2023/05/26 01:51:34;;;;;;;;;14.33;9.67;;;;;13.57;63.42;102486.41;5099883;27;45409;-66
2023/05/26 01:54:01;;;;;;;;;14.33;13.33;;;;;13.59;63.79;102491.69;5099974;27;45399;-65
2023/05/26 01:56:31;;;;;;;;;11.67;9.67;;;;;13.48;63.33;102483.84;5099331;27;46256;-66
2023/05/26 01:58:58;;;;;;;;;12.33;10.00;;;;;13.47;64.34;102484.72;5099449;27;45350;-66
2023/05/26 02:01:26;;;;;;;;;17.00;11.00;;;;;13.49;63.95;102484.69;5099716;27;45331;-66
2023/05/26 02:03:51;;;;;;;;;17.00;10.33;;;;;13.43;63.78;102482.97;5099765;27;45281;-65
2023/05/26 02:06:17;;;;;;;;;16.33;11.00;;;;;13.44;63.95;102489.16;5099194;27;47013;-66
2023/05/26 02:08:42;;;;;;;;;12.67;10.33;;;;;13.37;64.34;102485.66;5099429;27;45303;-68
2023/05/26 02:11:07;;;;;;;;;12.67;9.00;;;;;13.42;63.31;102499.75;5099334;27;45471;-65
2023/05/26 02:13:33;;;;;;;;;13.00;9.33;;;;;13.32;63.82;102496.25;5099588;27;45369;-65
2023/05/26 02:15:58;;;;;;;;;20.00;12.33;;;;;13.33;63.73;102492.72;5098964;27;46444;-66
2023/05/26 02:18:24;;;;;;;;;14.00;12.00;;;;;13.31;64.44;102498.91;5099214;27;45416;-65
2023/05/26 02:20:50;;;;;;;;;14.33;11.33;;;;;13.11;64.08;102470.78;5099546;27;45618;-66
2023/05/26 02:23:15;;;;;;;;;17.00;12.33;;;;;13.19;64.33;102484.84;5099438;27;45272;-65
2023/05/26 02:25:41;;;;;;;;;11.33;10.00;;;;;13.21;63.83;102484.84;5098797;27;46528;-65
2023/05/26 02:28:06;;;;;;;;;14.00;9.00;;;;;13.22;64.42;102492.78;5098885;27;45342;-66
2023/05/26 02:30:31;;;;;;;;;15.67;12.00;;;;;13.23;64.39;102502.47;5099076;27;45311;-65
2023/05/26 02:32:57;;;;;;;;;17.33;11.00;;;;;13.16;64.18;102492.81;5099479;27;45288;-65
2023/05/26 02:35:22;;;;;;;;;17.00;10.67;;;;;13.13;64.83;102491.94;5098813;27;45541;-65
2023/05/26 02:37:47;;;;;;;;;15.33;11.33;;;;;13.10;64.39;102499.88;5098517;27;45409;-65
2023/05/26 02:40:13;;;;;;;;;15.67;10.33;;;;;13.12;64.57;102503.41;5099185;27;45572;-65
2023/05/26 02:42:38;;;;;;;;;14.00;10.67;;;;;13.10;64.15;102494.59;5099096;27;45272;-65
2023/05/26 02:45:04;;;;;;;;;16.33;9.33;;;;;13.06;64.93;102502.56;5098687;27;46570;-66
2023/05/26 02:47:29;;;;;;;;;18.33;10.33;;;;;12.98;64.56;102487.59;5098777;27;45741;-65
2023/05/26 02:49:55;;;;;;;;;10.33;9.67;;;;;12.99;64.52;102492.88;5098708;27;45551;-65
2023/05/26 02:52:22;;;;;;;;;17.33;12.33;;;;;12.97;64.90;102499.97;5098581;27;45253;-65
2023/05/26 02:54:48;;;;;;;;;19.33;10.00;;;;;12.97;64.82;102491.13;5098464;27;46600;-66
2023/05/26 02:57:13;;;;;;;;;12.67;9.67;;;;;13.02;64.47;102505.22;5098665;27;45301;-65
2023/05/26 02:59:39;;;;;;;;;13.00;9.67;;;;;13.00;64.70;102502.59;5098835;27;45420;-65
2023/05/26 03:02:04;;;;;;;;;18.33;12.00;;;;;13.01;64.34;102514.03;5087775;27;45375;-65
2023/05/26 03:04:29;;;;;;;;;13.33;10.33;;;;;12.90;64.42;102498.22;5089414;27;47355;-65
2023/05/26 03:06:55;;;;;;;;;15.33;11.00;;;;;12.82;64.76;102492.97;5078135;28;45286;-65
2023/05/26 03:09:20;;;;;;;;;10.00;8.67;;;;;12.80;64.85;102493.88;5078312;28;45395;-65
2023/05/26 03:11:46;;;;;;;;;13.00;8.00;;;;;12.80;65.06;102505.31;5076924;28;45439;-66
2023/05/26 03:14:11;;;;;;;;;12.00;9.00;;;;;12.75;65.25;102501.81;5077956;28;46460;-65
2023/05/26 03:16:36;;;;;;;;;16.00;11.00;;;;;12.78;65.25;102508.84;5077917;28;45300;-65
2023/05/26 03:19:03;;;;;;;;;7.67;6.00;;;;;12.72;64.82;102496.50;5078220;28;45261;-65
2023/05/26 03:21:28;;;;;;;;;17.67;10.33;;;;;12.73;65.33;102505.34;5078383;28;45296;-65
2023/05/26 03:23:54;;;;;;;;;13.33;11.00;;;;;12.70;65.34;102514.16;5077763;28;46326;-65
2023/05/26 03:26:22;;;;;;;;;14.00;13.67;;;;;12.60;65.40;102501.84;5077714;28;45509;-66
2023/05/26 03:28:47;;;;;;;;;13.67;11.33;;;;;12.61;65.21;102508.91;5077831;28;45478;-65
2023/05/26 03:31:13;;;;;;;;;13.67;11.00;;;;;12.66;65.40;102520.31;5078008;28;45302;-65
2023/05/26 03:33:38;;;;;;;;;10.67;10.67;;;;;12.60;65.14;102508.00;5077726;28;45677;-65
2023/05/26 03:36:05;;;;;;;;;14.33;11.00;;;;;12.62;65.32;102516.84;5077730;28;45362;-66
2023/05/26 03:38:30;;;;;;;;;12.33;7.00;;;;;12.47;65.72;102498.38;5077747;28;45321;-65
2023/05/26 03:40:55;;;;;;;;;15.67;12.00;;;;;12.30;65.45;102470.22;5077703;28;45344;-65
2023/05/26 03:43:21;;;;;;;;;14.67;10.33;;;;;12.40;65.55;102486.03;5077431;28;45427;-65
2023/05/26 03:45:46;;;;;;;;;15.67;14.67;;;;;12.46;65.40;102507.16;5077152;28;45396;-65
2023/05/26 03:48:14;;;;;;;;;14.67;8.00;;;;;12.44;65.48;102515.09;5077649;28;45787;-65
2023/05/26 03:50:41;;;;;;;;;11.33;9.00;;;;;12.42;66.11;102518.66;5077789;28;45344;-65
2023/05/26 03:53:07;;;;;;;;;11.33;9.00;;;;;12.40;66.01;102515.97;5077341;28;46462;-65
2023/05/26 03:55:33;;;;;;;;;10.00;9.00;;;;;12.43;65.39;102521.28;5077374;28;45233;-65
2023/05/26 03:57:59;;;;;;;;;13.33;10.67;;;;;12.39;65.94;102519.53;5077436;28;45229;-65
2023/05/26 04:00:27;;;;;;;;;14.33;10.00;;;;;12.31;65.91;102508.94;5077744;28;45205;-65
2023/05/26 04:02:53;;;;;;;;;15.67;10.67;;;;;12.37;65.65;102515.97;5079464;28;46411;-65
2023/05/26 04:05:18;;;;;;;;;19.00;12.67;;;;;12.42;65.86;102523.94;5080868;28;45329;-65
2023/05/26 04:07:44;;;;;;;;;13.67;10.00;;;;;12.30;65.45;102507.22;5080980;28;45371;-65
2023/05/26 04:10:11;;;;;;;;;14.67;11.67;;;;;12.17;65.75;102487.84;5081202;28;45504;-65
2023/05/26 04:12:37;;;;;;;;;15.00;9.00;;;;;12.34;65.99;102516.91;5080595;28;46642;-65
2023/05/26 04:15:03;;;;;;;;;12.67;11.67;;;;;12.34;65.73;102516.00;5080692;28;45224;-65
2023/05/26 04:17:28;;;;;;;;;12.00;10.00;;;;;12.38;65.09;102523.03;5081112;28;45442;-65
2023/05/26 04:19:53;;;;;;;;;14.33;10.67;;;;;12.37;65.70;102531.84;5081152;28;45321;-65
2023/05/26 04:22:19;;;;;;;;;12.33;10.33;;;;;12.39;65.55;102529.19;5080808;28;47200;-65
2023/05/26 04:24:44;;;;;;;;;10.67;8.67;;;;;12.30;65.60;102516.88;5080594;28;45439;-65
2023/05/26 04:27:09;;;;;;;;;17.33;11.67;;;;;12.39;65.60;102535.38;5080480;28;45488;-65
2023/05/26 04:29:35;;;;;;;;;15.33;7.67;;;;;12.29;65.81;102520.44;5081101;28;45197;-65
2023/05/26 04:32:00;;;;;;;;;15.00;12.00;;;;;12.36;65.94;102525.69;5080696;28;46220;-66
2023/05/26 04:34:26;;;;;;;;;12.00;10.67;;;;;12.38;66.00;102520.41;5080530;28;45558;-65
2023/05/26 04:36:52;;;;;;;;;14.00;10.00;;;;;12.42;66.25;102526.56;5080559;28;45328;-65
2023/05/26 04:39:17;;;;;;;;;13.00;10.00;;;;;12.49;65.56;102526.53;5080429;28;45450;-65
2023/05/26 04:41:43;;;;;;;;;12.67;8.00;;;;;12.41;65.40;102523.03;5079904;28;45602;-65
2023/05/26 04:44:09;;;;;;;;;15.33;10.00;;;;;12.53;65.38;102546.81;5080190;28;45444;-66
2023/05/26 04:46:37;;;;;;;;;15.00;11.33;;;;;12.53;65.39;102540.63;5080167;28;45501;-65
2023/05/26 04:49:04;;;;;;;;;14.00;11.00;;;;;12.54;65.32;102542.38;5080513;28;45313;-65
2023/05/26 04:51:32;;;;;;;;;9.33;9.33;;;;;12.43;64.93;102530.94;5079926;28;47327;-65
2023/05/26 04:53:58;;;;;;;;;16.33;9.67;;;;;12.52;65.39;102546.81;5079578;28;45458;-65
2023/05/26 04:56:23;;;;;;;;;18.67;11.67;;;;;12.65;65.44;102561.75;5080241;28;45475;-65
2023/05/26 04:58:48;;;;;;;;;14.33;9.33;;;;;12.68;65.50;102564.38;5080266;28;45977;-65
2023/05/26 05:01:16;;;;;;;;;14.00;9.00;;;;;12.69;64.36;102559.97;5079748;28;45388;-66
2023/05/26 05:03:42;;;;;;;;;13.00;10.67;;;;;12.86;63.93;102563.44;5079766;28;45309;-65
2023/05/26 05:06:08;;;;;;;;;10.00;7.67;;;;;13.06;63.86;102550.16;5079916;28;45600;-65
2023/05/26 05:08:34;;;;;;;;;14.00;9.33;;;;;13.18;63.06;102564.22;5080248;28;45254;-64
2023/05/26 05:10:59;;;;;;;;;21.67;13.00;;;;;13.09;63.21;102553.69;5079842;28;45331;-64
2023/05/26 05:13:25;;;;;;;;;16.33;10.33;;;;;13.14;63.09;102558.06;5079046;28;45411;-64
2023/05/26 05:15:50;;;;;;;;;13.67;10.67;;;;;13.14;63.28;102565.09;5079955;28;45205;-64
2023/05/26 05:18:15;;;;;;;;;13.00;10.33;;;;;13.05;62.97;102571.31;5080543;28;45407;-63
2023/05/26 05:20:41;;;;;;;;;16.00;12.67;;;;;12.96;63.08;102560.78;5079762;28;46241;-64
2023/05/26 05:23:06;;;;;;;;;12.33;12.33;;;;;12.89;63.98;102560.81;5079914;28;45345;-64
2023/05/26 05:25:31;;;;;;;;;12.33;10.00;;;;;12.71;63.65;102532.66;5080097;28;45469;-64
2023/05/26 05:27:57;;;;;;;;;16.33;10.00;;;;;12.85;63.35;102556.41;5079811;28;45280;-64
2023/05/26 05:30:22;;;;;;;;;16.67;10.00;;;;;12.87;63.63;102561.69;5079704;28;46639;-63
2023/05/26 05:32:47;;;;;;;;;15.33;10.00;;;;;12.87;63.36;102559.91;5079613;28;45374;-64
2023/05/26 05:35:13;;;;;;;;;11.67;11.00;;;;;12.84;63.83;102540.56;5079752;28;45301;-64
2023/05/26 05:37:38;;;;;;;;;17.00;10.00;;;;;12.97;62.87;102570.44;5079729;28;45331;-64
2023/05/26 05:40:04;;;;;;;;;19.67;11.00;;;;;12.94;62.99;102565.19;5079300;28;46074;-65
2023/05/26 05:42:30;;;;;;;;;13.00;10.67;;;;;12.84;63.23;102541.44;5079448;28;45315;-64
2023/05/26 05:44:55;;;;;;;;;12.67;8.67;;;;;13.06;62.66;102573.94;5079233;28;45831;-64
2023/05/26 05:47:20;;;;;;;;;16.33;12.67;;;;;13.13;62.99;102580.09;5079931;28;45347;-64
2023/05/26 05:49:46;;;;;;;;;12.67;9.33;;;;;13.06;63.00;102567.78;5079335;28;45373;-64
2023/05/26 05:52:13;;;;;;;;;13.00;11.33;;;;;13.20;62.27;102589.78;5079169;28;45309;-64
2023/05/26 05:54:38;;;;;;;;;12.67;9.67;;;;;13.20;62.54;102581.84;5079400;28;45220;-64
2023/05/26 05:57:04;;;;;;;;;14.33;10.33;;;;;13.22;62.36;102576.56;5079221;28;45343;-64
2023/05/26 05:59:29;;;;;;;;;11.67;9.67;;;;;13.29;62.60;102594.16;5079219;28;45362;-64
2023/05/26 06:01:55;;;;;;;;;15.00;9.67;;;;;13.09;61.88;102566.91;5079320;28;46339;-64
2023/05/26 06:04:20;;;;;;;;;13.33;10.33;;;;;13.20;62.41;102579.19;5079214;28;45379;-64
2023/05/26 06:06:46;;;;;;;;;15.00;14.00;;;;;13.33;62.18;102602.94;5079301;28;45336;-64
2023/05/26 06:09:11;;;;;;;;;14.33;9.00;;;;;13.40;61.87;102589.72;5078904;28;46484;-64
2023/05/26 06:11:37;;;;;;;;;16.00;11.33;;;;;13.40;61.69;102579.16;5079192;28;45416;-64
2023/05/26 06:14:02;;;;;;;;;11.33;7.67;;;;;13.49;61.90;102596.75;5079126;28;45407;-64
2023/05/26 06:16:27;;;;;;;;;18.33;10.67;;;;;13.53;61.88;102592.31;5079106;28;45432;-64
2023/05/26 06:18:53;;;;;;;;;12.33;9.00;;;;;13.62;61.81;102600.19;5079066;28;46312;-64
2023/05/26 06:21:18;;;;;;;;;15.00;8.67;;;;;13.62;61.71;102605.47;5079023;28;45329;-64
2023/05/26 06:23:43;;;;;;;;;14.33;11.67;;;;;13.53;60.90;102600.25;5079003;28;45266;-64
2023/05/26 06:26:09;;;;;;;;;14.00;11.33;;;;;13.46;61.65;102611.75;5077821;28;45256;-64
2023/05/26 06:28:34;;;;;;;;;16.00;11.67;;;;;13.48;61.44;102615.28;5078413;28;47435;-64
2023/05/26 06:30:59;;;;;;;;;18.00;12.67;;;;;13.46;61.89;102607.31;5078854;28;45334;-65
2023/05/26 06:33:25;;;;;;;;;10.67;9.33;;;;;13.28;61.53;102565.94;5078868;28;46109;-64
2023/05/26 06:35:50;;;;;;;;;15.33;10.00;;;;;13.52;61.33;102609.06;5079106;28;45426;-64
2023/05/26 06:38:16;;;;;;;;;10.33;8.00;;;;;13.54;61.96;102608.16;5078458;28;46509;-64
2023/05/26 06:40:41;;;;;;;;;19.00;12.00;;;;;13.56;61.43;102609.06;5078391;28;45239;-64
2023/05/26 06:43:06;;;;;;;;;13.33;11.67;;;;;13.63;61.41;102615.19;5077337;28;45270;-64
2023/05/26 06:45:32;;;;;;;;;13.00;11.67;;;;;13.68;61.13;102610.75;5078644;28;45395;-64
2023/05/26 06:47:57;;;;;;;;;17.67;12.33;;;;;13.79;61.57;102615.97;5078403;28;46438;-64
2023/05/26 06:50:22;;;;;;;;;16.00;12.00;;;;;13.82;60.64;102609.78;5078468;28;45433;-64
2023/05/26 06:52:48;;;;;;;;;17.00;13.33;;;;;13.85;60.64;102609.75;5078432;28;45265;-64
2023/05/26 06:55:13;;;;;;;;;13.67;10.33;;;;;13.91;60.32;102618.56;5078828;28;45206;-64
2023/05/26 06:57:39;;;;;;;;;20.00;12.33;;;;;13.96;60.41;102615.00;5078041;28;47109;-64
2023/05/26 07:00:05;;;;;;;;;14.00;11.00;;;;;13.96;60.70;102602.63;5078480;28;45386;-64
2023/05/26 07:02:31;;;;;;;;;10.00;8.33;;;;;14.41;59.93;102615.53;5078332;28;45458;-64
2023/05/26 07:04:57;;;;;;;;;16.67;13.67;;;;;15.04;58.68;102612.25;5078403;28;45407;-64
2023/05/26 07:07:22;;;;;;;;;15.00;15.00;;;;;15.24;57.41;102620.00;5078203;28;45510;-64
2023/05/26 07:09:47;;;;;;;;;14.33;11.00;;;;;15.26;57.32;102617.31;5078147;28;45457;-65
2023/05/26 07:12:13;;;;;;;;;16.33;12.00;;;;;15.29;57.46;102619.94;5078334;28;45328;-64
2023/05/26 07:14:38;;;;;;;;;15.33;10.67;;;;;15.34;56.65;102619.91;5078246;28;45282;-64
2023/05/26 07:17:03;;;;;;;;;11.67;10.00;;;;;15.98;56.39;102623.47;5077834;28;45425;-64
2023/05/26 07:19:29;;;;;;;;;13.67;9.33;;;;;16.96;53.87;102617.38;5078120;28;45335;-64
2023/05/26 07:21:54;;;;;;;;;14.33;8.00;;;;;16.85;53.44;102614.91;5077909;28;45382;-64
2023/05/26 07:24:19;;;;;;;;;11.33;9.67;;;;;16.56;54.02;102618.97;5078241;28;45359;-64
2023/05/26 07:26:45;;;;;;;;;15.67;11.33;;;;;16.22;54.06;102608.91;5077608;28;46502;-64
2023/05/26 07:29:10;;;;;;;;;13.67;10.00;;;;;16.07;54.38;102615.34;5077645;28;45293;-64
2023/05/26 07:31:36;;;;;;;;;9.67;7.33;;;;;15.85;54.43;102604.16;5077994;28;45494;-64
2023/05/26 07:34:01;;;;;;;;;14.67;9.67;;;;;15.75;54.83;102626.44;5077960;28;45309;-65
2023/05/26 07:36:26;;;;;;;;;12.00;9.67;;;;;15.64;55.14;102607.97;5077342;28;46335;-65
2023/05/26 07:38:51;;;;;;;;;15.67;11.33;;;;;15.62;55.12;102623.94;5077708;28;45248;-64
2023/05/26 07:41:17;;;;;;;;;10.67;9.33;;;;;15.61;55.14;102630.16;5077867;28;45459;-64
2023/05/26 07:43:42;;;;;;;;;13.00;9.00;;;;;15.58;55.58;102614.28;5077749;28;45384;-65
2023/05/26 07:46:07;;;;;;;;;12.00;9.00;;;;;15.74;55.94;102628.22;5077125;28;46438;-64
2023/05/26 07:48:34;;;;;;;;;14.00;7.67;;;;;15.81;54.68;102629.91;5077664;28;45337;-64
2023/05/26 07:50:59;;;;;;;;;14.67;9.00;;;;;15.60;55.28;102595.66;5077353;28;45373;-65
2023/05/26 07:53:25;;;;;;;;;16.00;7.67;;;;;16.04;54.73;102628.69;5077769;28;45152;-64
2023/05/26 07:55:50;;;;;;;;;12.33;10.00;;;;;16.09;54.08;102636.56;5077694;28;46264;-65
2023/05/26 07:58:15;;;;;;;;;9.00;8.00;;;;;16.07;53.51;102623.31;5077330;28;46091;-64
2023/05/26 08:00:41;;;;;;;;;9.00;7.00;;;;;15.99;54.33;102622.56;5077856;28;45534;-64
2023/05/26 08:03:06;;;;;;;;;12.67;9.33;;;;;16.06;54.29;102623.34;5077745;28;45333;-64
2023/05/26 08:05:32;;;;;;;;;12.00;8.67;;;;;16.42;53.75;102620.97;5077512;28;46337;-64
2023/05/26 08:07:57;;;;;;;;;12.00;8.33;;;;;16.61;52.34;102624.19;5077288;28;45440;-64
2023/05/26 08:10:23;;;;;;;;;11.67;7.67;;;;;16.71;52.54;102601.84;5077426;28;45308;-64
2023/05/26 08:12:51;;;;;;;;;13.67;9.00;;;;;17.35;51.93;102613.00;5077578;28;45470;-65
2023/05/26 08:15:16;;;;;;;;;14.00;6.67;;;;;17.82;50.66;102607.56;5076915;28;46650;-65
2023/05/26 08:17:42;;;;;;;;;13.33;9.33;;;;;18.49;48.86;102592.59;5077233;28;45218;-65
2023/05/26 08:20:08;;;;;;;;;12.33;8.33;;;;;19.30;48.10;102606.38;5076013;28;45321;-64
2023/05/26 08:22:34;;;;;;;;;7.33;6.00;;;;;19.96;46.86;102602.59;5077438;28;45294;-65
2023/05/26 08:25:00;;;;;;;;;7.00;6.00;;;;;19.88;45.65;102600.19;5077093;28;45377;-65
2023/05/26 08:27:26;;;;;;;;;6.33;6.00;;;;;19.77;45.49;102605.84;5077035;28;45370;-65
2023/05/26 08:29:51;;;;;;;;;15.00;7.00;;;;;19.59;45.25;102603.72;5076987;28;45305;-65
2023/05/26 08:32:17;;;;;;;;;12.67;5.33;;;;;19.37;46.62;102611.53;5077429;28;45380;-65
2023/05/26 08:34:42;;;;;;;;;6.00;5.00;;;;;19.02;46.25;102594.75;5077084;28;46075;-64
2023/05/26 08:37:08;;;;;;;;;6.67;5.00;;;;;18.94;46.58;102606.53;5077060;28;45305;-64
2023/05/26 08:39:34;;;;;;;;;6.33;4.67;;;;;18.87;46.37;102610.28;5077100;28;45399;-64
2023/05/26 08:42:02;;;;;;;;;9.00;5.67;;;;;18.82;45.07;102612.19;5077058;28;45451;-65
2023/05/26 08:44:28;;;;;;;;;6.67;6.00;;;;;18.59;45.59;102610.13;5076637;28;47462;-65
2023/05/26 08:46:55;;;;;;;;;6.33;3.00;;;;;18.31;46.30;102605.50;5076541;28;45376;-65
2023/05/26 08:49:22;;;;;;;;;12.67;6.00;;;;;17.99;45.62;102616.97;5078529;28;45242;-64
2023/05/26 08:52:07;;;;;;;;;10.67;6.67;;;;;17.87;46.22;102626.09;5080473;28;45300;-64
2023/05/26 08:54:33;;;;;;;;;10.33;6.33;;;;;17.87;46.00;102626.97;5079741;28;47115;-64
2023/05/26 08:57:02;;;;;;;;;12.33;7.00;;;;;17.71;45.89;102613.13;5080169;28;45382;-64
2023/05/26 08:59:28;;;;;;;;;9.00;4.33;;;;;17.64;44.91;102610.63;5080482;28;45288;-65
2023/05/26 09:01:54;;;;;;;;;5.67;4.00;;;;;17.61;44.72;102622.22;5080368;28;45465;-65
2023/05/26 09:04:19;;;;;;;;;7.00;5.33;;;;;17.57;44.57;102620.53;5079881;28;46285;-65
2023/05/26 09:06:45;;;;;;;;;8.00;5.00;;;;;17.54;45.22;102626.84;5079872;28;45385;-65
2023/05/26 09:09:11;;;;;;;;;9.67;4.00;;;;;17.38;44.36;102618.28;5080274;28;45204;-65
2023/05/26 09:11:41;;;;;;;;;11.00;7.00;;;;;17.43;44.59;102607.53;5080435;28;45324;-65
2023/05/26 09:14:06;;;;;;;;;9.00;6.00;;;;;17.71;44.54;102610.44;5079721;28;46427;-65
2023/05/26 09:16:31;;;;;;;;;10.33;4.00;;;;;18.02;45.39;102619.56;5079828;28;45437;-65
2023/05/26 09:19:00;;;;;;;;;9.67;5.67;;;;;18.08;44.50;102622.06;5080149;28;45338;-65
2023/05/26 09:21:26;;;;;;;;;7.00;6.00;;;;;18.10;43.44;102615.78;5080233;28;45400;-65
2023/05/26 09:23:55;;;;;;;;;10.33;6.67;;;;;18.09;43.24;102615.81;5079733;28;47116;-65
2023/05/26 09:26:27;;;;;;;;;9.00;6.00;;;;;18.10;44.42;102613.13;5079590;28;45343;-65
2023/05/26 09:28:52;;;;;;;;;8.00;5.00;;;;;18.18;44.26;102607.63;5079563;28;45352;-64
2023/05/26 09:31:18;;;;;;;;;9.67;5.33;;;;;18.26;44.22;102610.94;5080126;28;45422;-64
2023/05/26 09:33:46;;;;;;;;;10.33;5.00;;;;;18.49;44.66;102622.84;5079587;28;45531;-65
2023/05/26 09:36:11;;;;;;;;;7.00;4.67;;;;;19.81;43.00;102604.84;5079586;28;45372;-65
2023/05/26 09:38:37;;;;;;;;;11.33;3.33;;;;;21.78;39.31;102609.44;5079922;28;45470;-65
2023/05/26 09:41:02;;;;;;;;;5.00;3.67;;;;;23.84;36.79;102598.56;5079894;28;45352;-65
2023/05/26 09:43:33;;;;;;;;;8.33;6.00;;;;;26.14;36.51;102613.22;5079341;28;46510;-65
2023/05/26 09:45:58;;;;;;;;;10.67;6.67;;;;;28.23;31.31;102613.59;5079147;28;45338;-65
2023/05/26 09:48:23;;;;;;;;;9.67;8.00;;;;;30.00;30.56;102609.06;5079660;28;45459;-65
2023/05/26 09:50:51;;;;;;;;;11.33;6.67;;;;;31.55;27.22;102607.78;5079663;28;45390;-65
2023/05/26 09:53:16;;;;;;;;;12.67;8.00;;;;;32.85;25.66;102608.56;5079318;28;45306;-65
2023/05/26 09:55:43;;;;;;;;;8.00;5.67;;;;;34.34;24.16;102612.28;5079499;28;45333;-65
2023/05/26 09:58:11;;;;;;;;;7.67;7.00;;;;;35.58;25.59;102612.06;5079337;28;45280;-65
2023/05/26 10:00:39;;;;;;;;;10.00;7.33;;;;;36.62;23.02;102606.97;5079031;28;45406;-65
2023/05/26 10:03:07;;;;;;;;;11.00;9.00;;;;;37.31;20.25;102612.47;5079046;28;45318;-65
2023/05/26 10:05:36;;;;;;;;;8.33;7.00;;;;;37.61;22.27;102616.50;5079056;28;45236;-65
2023/05/26 10:08:05;;;;;;;;;9.00;6.33;;;;;38.22;20.76;102606.06;5079155;28;45374;-65
2023/05/26 10:10:31;;;;;;;;;13.00;7.00;;;;;39.11;17.92;102610.66;5079241;28;45357;-65
2023/05/26 10:12:57;;;;;;;;;9.00;7.33;;;;;39.66;20.32;102617.97;5078967;28;45436;-65
2023/05/26 10:15:22;;;;;;;;;7.33;5.00;;;;;39.76;21.11;102614.94;5078485;28;45522;-65
2023/05/26 10:17:48;;;;;;;;;12.00;7.67;;;;;39.68;16.85;102604.00;5079255;28;45360;-66
2023/05/26 10:20:15;;;;;;;;;10.00;7.00;;;;;39.76;16.36;102594.78;5079278;28;45435;-66
2023/05/26 10:22:59;;;;;;;;;9.00;6.67;;;;;39.80;18.56;102596.97;5060481;28;46661;-66
2023/05/26 10:25:46;;;;;;;;;12.00;8.00;;;;;39.74;17.37;102575.66;5079016;28;45276;-65
2023/05/26 10:28:23;;;;;;;;;9.00;8.00;;;;;39.83;16.73;102591.09;5078741;28;45493;-66
2023/05/26 10:31:00;;;;;;;;;5.33;4.33;;;;;40.23;17.91;102588.19;5060559;28;45559;-66
2023/05/26 10:33:37;;;;;;;;;8.33;7.00;;;;;40.16;16.56;102578.94;5078693;28;45364;-66
2023/05/26 10:36:07;;;;;;;;;4.00;4.00;;;;;40.33;17.44;102580.47;5078568;28;45221;-66
2023/05/26 10:38:37;;;;;;;;;15.00;10.00;;;;;40.53;16.78;102580.78;5078805;28;45334;-65
2023/05/26 10:41:10;;;;;;;;;9.67;6.00;;;;;40.35;16.48;102585.81;5078692;28;45225;-65
2023/05/26 10:43:36;;;;;;;;;13.33;6.67;;;;;39.93;16.48;102578.97;5078365;28;46400;-65
2023/05/26 10:46:02;;;;;;;;;11.33;7.33;;;;;39.63;15.50;102573.34;5078210;28;45485;-66
2023/05/26 10:48:54;;;;;;;;;11.67;8.67;;;;;39.52;16.92;102574.59;5078470;28;45390;-65
2023/05/26 10:51:33;;;;;;;;;12.00;7.00;;;;;39.21;16.38;102564.47;5078582;28;45295;-66
2023/05/26 10:54:21;;;;;;;;;9.67;7.00;;;;;38.74;16.69;102576.41;5078348;28;45381;-66
2023/05/26 10:56:50;;;;;;;;;9.00;5.00;;;;;37.91;16.45;102575.66;5078264;28;45428;-66
2023/05/26 10:59:21;;;;;;;;;9.00;5.33;;;;;36.80;17.61;102557.50;5078081;28;45486;-66
2023/05/26 11:01:53;;;;;;;;;10.33;6.00;;;;;35.56;16.56;102573.00;5078559;28;45365;-66
2023/05/26 11:04:18;;;;;;;;;5.67;4.00;;;;;33.99;17.61;102567.25;5077983;28;47452;-65
2023/05/26 11:06:50;;;;;;;;;8.67;6.00;;;;;32.64;18.59;102568.47;5078032;28;45340;-66
2023/05/26 11:09:16;;;;;;;;;4.33;4.00;;;;;31.07;19.42;102568.16;5078578;28;45483;-65
2023/05/26 11:11:59;;;;;;;;;6.00;4.00;;;;;29.89;20.47;102560.16;5077677;28;45415;-65